Time;durP1;ratioP1;P1;durP2;ratioP2;P2;SDS_P1;SDS_P2;PMS_P1;PMS_P2;Temp;Humidity;BMP_temperature;BMP_pressure;BME280_temperature;BME280_humidity;BME280_pressure;Samples;Min_cycle;Max_cycle;Signal;HPM_P1;HPM_P2
2021/04/02 00:01:47;;;;;;;30.07;9.00;;;;;;;7.31;91.83;93979.84;5094823;28;20209;-78
2021/04/02 00:04:13;;;;;;;23.20;8.63;;;;;;;7.31;93.67;93985.88;5094058;28;20198;-78
2021/04/02 00:06:39;;;;;;;21.03;7.33;;;;;;;7.21;93.73;93980.91;5094553;28;20284;-78
2021/04/02 00:09:06;;;;;;;23.20;7.70;;;;;;;7.29;93.26;93977.41;5094481;28;20641;-79
2021/04/02 00:11:32;;;;;;;29.17;6.90;;;;;;;7.27;93.53;93969.00;5094436;28;20198;-77
2021/04/02 00:13:58;;;;;;;31.23;9.03;;;;;;;7.10;95.19;93973.53;5094566;28;20271;-78
2021/04/02 00:16:24;;;;;;;34.87;10.23;;;;;;;7.13;98.80;93967.19;5094317;28;20241;-79
2021/04/02 00:18:50;;;;;;;30.47;9.23;;;;;;;7.18;98.67;93965.69;5094454;28;20227;-79
2021/04/02 00:21:17;;;;;;;47.57;10.30;;;;;;;7.04;99.53;93974.22;5094294;28;20209;-79
2021/04/02 00:23:44;;;;;;;39.83;10.97;;;;;;;7.09;100.00;93965.91;5094197;28;20202;-79
2021/04/02 00:26:13;;;;;;;38.87;11.63;;;;;;;7.10;100.00;93964.94;5094241;28;20202;-78
2021/04/02 00:28:39;;;;;;;34.13;10.60;;;;;;;7.08;100.00;93966.88;5094235;28;20225;-78
2021/04/02 00:31:05;;;;;;;34.53;11.43;;;;;;;6.92;100.00;93968.63;5093890;28;20657;-78
2021/04/02 00:33:33;;;;;;;29.30;10.23;;;;;;;6.72;100.00;93970.06;5094192;28;20232;-78
2021/04/02 00:36:01;;;;;;;29.43;9.60;;;;;;;6.51;100.00;93953.31;5093869;28;20282;-79
2021/04/02 00:38:27;;;;;;;28.67;10.57;;;;;;;6.55;100.00;93957.19;5093905;28;20205;-81
2021/04/02 00:40:56;;;;;;;35.00;11.20;;;;;;;6.43;100.00;93955.97;5093780;28;20661;-80
2021/04/02 00:43:26;;;;;;;28.10;10.47;;;;;;;6.36;100.00;93955.84;5094017;28;20202;-78
2021/04/02 00:45:53;;;;;;;40.67;12.53;;;;;;;6.29;100.00;93957.47;5094180;28;20225;-80
2021/04/02 00:48:19;;;;;;;32.37;11.27;;;;;;;6.42;100.00;93956.94;5093847;28;20201;-79
2021/04/02 00:50:48;;;;;;;41.43;11.43;;;;;;;6.23;100.00;93958.19;5093726;28;20212;-78
2021/04/02 00:53:15;;;;;;;36.67;12.63;;;;;;;6.20;100.00;93956.72;5093821;28;20565;-79
2021/04/02 00:55:41;;;;;;;35.57;10.20;;;;;;;6.44;100.00;93950.59;5093743;28;20233;-79
2021/04/02 00:58:09;;;;;;;31.70;9.13;;;;;;;6.25;100.00;93951.84;5093556;28;20649;-81
2021/04/02 01:00:36;;;;;;;48.87;14.07;;;;;;;6.47;100.00;93957.22;5093758;28;20208;-80
2021/04/02 01:03:03;;;;;;;38.33;12.23;;;;;;;6.44;100.00;93952.38;5093665;28;20193;-79
2021/04/02 01:05:33;;;;;;;32.33;11.70;;;;;;;6.17;100.00;93954.47;5093291;28;20201;-81
2021/04/02 01:08:01;;;;;;;37.13;12.93;;;;;;;6.03;100.00;93952.56;5093714;28;20255;-79
2021/04/02 01:10:28;;;;;;;44.83;13.73;;;;;;;6.12;100.00;93948.97;5093593;28;20228;-79
2021/04/02 01:12:56;;;;;;;45.97;12.93;;;;;;;6.07;100.00;93952.06;5093556;28;20208;-78
2021/04/02 01:15:32;;;;;;;41.73;13.50;;;;;;;6.04;100.00;93949.00;5093449;28;20316;-78
2021/04/02 01:18:01;;;;;;;42.67;15.00;;;;;;;6.24;100.00;93939.03;5093235;28;20198;-79
2021/04/02 01:20:32;;;;;;;43.87;12.10;;;;;;;6.22;100.00;93946.19;5093093;28;20208;-80
2021/04/02 01:23:02;;;;;;;43.60;13.83;;;;;;;6.07;100.00;93941.69;5093431;28;20198;-79
2021/04/02 01:25:40;;;;;;;33.20;12.97;;;;;;;5.88;100.00;93942.88;5093372;28;20344;-78
2021/04/02 01:28:42;;;;;;;40.30;14.10;;;;;;;5.87;100.00;93954.22;5093294;28;20235;-79
2021/04/02 01:31:11;;;;;;;28.57;10.03;;;;;;;5.59;100.00;93951.22;5085884;28;20197;-80
2021/04/02 01:33:37;;;;;;;40.17;13.67;;;;;;;5.56;100.00;93949.78;5093306;28;20610;-80
2021/04/02 01:36:06;;;;;;;32.37;11.83;;;;;;;5.56;100.00;93954.97;5092992;28;20233;-79
2021/04/02 01:38:35;;;;;;;41.77;14.03;;;;;;;5.53;100.00;93957.88;5093108;28;20595;-78
2021/04/02 01:41:05;;;;;;;44.17;14.10;;;;;;;5.49;100.00;93956.56;5092927;28;20198;-79
2021/04/02 01:43:34;;;;;;;57.33;14.90;;;;;;;5.54;100.00;93959.47;5093229;28;20204;-78
2021/04/02 01:46:01;;;;;;;72.13;19.20;;;;;;;5.56;100.00;93954.97;5093045;28;20198;-80
2021/04/02 01:48:29;;;;;;;40.40;13.00;;;;;;;5.72;100.00;93948.91;5092400;28;20664;-79
2021/04/02 01:50:57;;;;;;;42.77;13.73;;;;;;;5.78;100.00;93939.69;5092922;28;20652;-78
2021/04/02 01:53:27;;;;;;;44.13;13.77;;;;;;;5.72;100.00;93938.56;5092810;28;20206;-78
2021/04/02 01:55:54;;;;;;;43.73;13.43;;;;;;;5.83;100.00;93946.94;5093187;28;20226;-81
2021/04/02 01:58:21;;;;;;;40.73;13.67;;;;;;;5.81;100.00;93941.13;5092737;28;20204;-79
2021/04/02 02:00:50;;;;;;;42.80;13.70;;;;;;;5.70;100.00;93943.09;5092628;28;20210;-78
2021/04/02 02:03:17;;;;;;;37.17;13.60;;;;;;;5.60;100.00;93941.69;5092736;28;20592;-79
2021/04/02 02:05:46;;;;;;;45.53;15.07;;;;;;;5.65;100.00;93944.59;5092762;28;20228;-79
2021/04/02 02:08:13;;;;;;;35.90;14.27;;;;;;;5.53;100.00;93939.75;5092916;28;20202;-78
2021/04/02 02:10:40;;;;;;;47.73;15.23;;;;;;;5.48;100.00;93947.22;5092931;28;20266;-77
2021/04/02 02:13:08;;;;;;;42.50;13.77;;;;;;;5.64;100.00;93948.13;5092904;28;20232;-79
2021/04/02 02:15:38;;;;;;;37.30;13.77;;;;;;;5.54;100.00;93950.91;5092699;28;20234;-78
2021/04/02 02:18:08;;;;;;;48.53;14.40;;;;;;;5.50;100.00;93954.81;5092739;28;20209;-77
2021/04/02 02:20:38;;;;;;;38.43;13.27;;;;;;;5.26;100.00;93942.69;5092617;28;20676;-77
2021/04/02 02:23:06;;;;;;;41.57;15.10;;;;;;;5.07;100.00;93946.44;5092708;28;20239;-77
2021/04/02 02:25:32;;;;;;;46.83;16.77;;;;;;;5.14;100.00;93935.25;5092611;28;20201;-78
2021/04/02 02:27:58;;;;;;;46.00;14.23;;;;;;;5.00;100.00;93941.91;5092580;28;20199;-79
2021/04/02 02:30:26;;;;;;;53.07;16.40;;;;;;;5.00;100.00;93933.34;5092564;28;20206;-79
2021/04/02 02:32:54;;;;;;;56.63;18.53;;;;;;;4.96;100.00;93932.88;5096195;28;20230;-78
2021/04/02 02:35:21;;;;;;;44.13;15.67;;;;;;;4.85;100.00;93935.78;5096282;28;20929;-78
2021/04/02 02:37:48;;;;;;;47.10;15.73;;;;;;;4.82;100.00;93939.47;5096276;28;20202;-78
2021/04/02 02:40:18;;;;;;;54.30;18.07;;;;;;;4.88;100.00;93940.63;5096214;28;20717;-80
2021/04/02 02:42:45;;;;;;;42.07;14.50;;;;;;;4.76;100.00;93937.56;5096667;28;20198;-79
2021/04/02 02:45:13;;;;;;;46.67;16.60;;;;;;;4.86;100.00;93936.56;5096169;28;20673;-78
2021/04/02 02:47:39;;;;;;;45.23;15.33;;;;;;;4.70;100.00;93935.59;5096055;28;20198;-77
2021/04/02 02:50:08;;;;;;;61.80;18.73;;;;;;;4.70;100.00;93939.97;5095968;28;20556;-77
2021/04/02 02:52:36;;;;;;;60.93;18.97;;;;;;;4.75;100.00;93930.75;5096200;28;20198;-79
2021/04/02 02:55:04;;;;;;;53.67;17.73;;;;;;;4.61;100.00;93929.63;5095934;28;20237;-77
2021/04/02 02:57:32;;;;;;;52.93;19.63;;;;;;;4.55;100.00;93938.00;5096113;28;20209;-79
2021/04/02 03:00:00;;;;;;;55.23;19.43;;;;;;;4.57;100.00;93935.25;5095799;28;20213;-77
2021/04/02 03:02:28;;;;;;;61.60;19.83;;;;;;;4.69;100.00;93933.97;5095746;28;20656;-78
2021/04/02 03:04:56;;;;;;;44.70;17.63;;;;;;;4.68;100.00;93937.53;5095940;28;20202;-78
2021/04/02 03:07:23;;;;;;;52.23;16.40;;;;;;;4.51;100.00;93934.09;5095958;28;20239;-79
2021/04/02 03:09:51;;;;;;;63.73;21.30;;;;;;;4.49;100.00;93941.22;5095890;28;20195;-78
2021/04/02 03:12:18;;;;;;;67.37;20.90;;;;;;;4.62;100.00;93940.75;5095766;28;20202;-78
2021/04/02 03:14:47;;;;;;;52.27;18.50;;;;;;;4.53;100.00;93937.38;5095373;28;20229;-78
2021/04/02 03:17:13;;;;;;;63.33;21.83;;;;;;;4.60;100.00;93938.34;5095757;28;20194;-77
2021/04/02 03:19:42;;;;;;;56.03;18.83;;;;;;;4.52;100.00;93934.94;5095821;28;20208;-76
2021/04/02 03:22:10;;;;;;;59.67;19.53;;;;;;;4.44;100.00;93936.50;5095779;28;20258;-79
2021/04/02 03:24:38;;;;;;;62.17;20.93;;;;;;;4.43;100.00;93934.91;5095604;28;20198;-78
2021/04/02 03:27:06;;;;;;;61.07;19.03;;;;;;;4.45;100.00;93929.59;5095358;28;20209;-77
2021/04/02 03:29:33;;;;;;;57.30;20.47;;;;;;;4.40;100.00;93937.81;5095611;28;20289;-77
2021/04/02 03:32:03;;;;;;;65.00;20.37;;;;;;;4.36;100.00;93933.13;5094856;28;20705;-79
2021/04/02 03:34:32;;;;;;;57.00;19.40;;;;;;;4.26;100.00;93925.50;5095604;28;20194;-78
2021/04/02 03:37:00;;;;;;;63.43;19.87;;;;;;;4.11;100.00;93927.09;5095236;28;20198;-78
2021/04/02 03:39:29;;;;;;;69.17;19.97;;;;;;;4.02;100.00;93924.47;5095318;28;20198;-79
2021/04/02 03:41:58;;;;;;;59.20;19.23;;;;;;;3.96;100.00;93925.09;5094622;28;20538;-78
2021/04/02 03:44:28;;;;;;;60.87;20.63;;;;;;;3.87;100.00;93932.00;5095251;28;20198;-78
2021/04/02 03:46:56;;;;;;;79.20;24.50;;;;;;;4.06;100.00;93920.63;5094920;28;20202;-78
2021/04/02 03:49:27;;;;;;;64.83;21.63;;;;;;;4.17;100.00;93927.25;5095037;28;20271;-77
2021/04/02 03:51:56;;;;;;;66.80;22.97;;;;;;;3.97;100.00;93924.13;5094498;28;20459;-79
2021/04/02 03:54:24;;;;;;;68.90;22.90;;;;;;;3.94;100.00;93916.69;5094709;28;20205;-78
2021/04/02 03:56:54;;;;;;;74.10;23.03;;;;;;;4.02;100.00;93923.66;5095023;28;20198;-77
2021/04/02 03:59:23;;;;;;;66.10;22.00;;;;;;;3.87;100.00;93913.94;5094756;28;20198;-77
2021/04/02 04:01:51;;;;;;;67.07;23.07;;;;;;;4.00;100.00;93920.44;5094806;28;20558;-77
2021/04/02 04:04:18;;;;;;;68.00;22.43;;;;;;;3.89;100.00;93924.09;5094639;28;20665;-78
2021/04/02 04:06:47;;;;;;;67.10;22.40;;;;;;;3.78;100.00;93919.22;5094542;28;20204;-78
2021/04/02 04:09:16;;;;;;;72.90;23.77;;;;;;;3.78;100.00;93924.38;5094759;28;20202;-77
2021/04/02 04:11:43;;;;;;;72.73;21.77;;;;;;;3.98;100.00;93923.19;5094714;28;20201;-79
2021/04/02 04:14:11;;;;;;;67.20;21.17;;;;;;;3.89;100.00;93929.25;5094622;28;20221;-78
2021/04/02 04:16:40;;;;;;;88.63;27.53;;;;;;;3.98;100.00;93928.34;5094265;28;20561;-78
2021/04/02 04:19:06;;;;;;;87.30;27.07;;;;;;;4.09;100.00;93932.41;5094292;28;20201;-79
2021/04/02 04:21:37;;;;;;;79.70;24.10;;;;;;;4.04;100.00;93943.19;5094598;28;20198;-79
2021/04/02 04:24:06;;;;;;;70.37;23.53;;;;;;;3.83;100.00;93941.03;5094549;28;20194;-78
2021/04/02 04:26:32;;;;;;;70.90;24.63;;;;;;;3.88;100.00;93943.97;5094259;28;20653;-79
2021/04/02 04:29:00;;;;;;;72.97;23.93;;;;;;;3.59;100.00;93933.97;5094289;28;20202;-78
2021/04/02 04:31:26;;;;;;;70.50;25.53;;;;;;;3.66;100.00;93931.59;5093921;28;20267;-77
2021/04/02 04:33:55;;;;;;;71.23;22.80;;;;;;;3.57;100.00;93925.59;5094070;28;20256;-77
2021/04/02 04:36:22;;;;;;;78.00;25.17;;;;;;;3.61;100.00;93923.50;5093961;28;20710;-77
2021/04/02 04:38:50;;;;;;;78.47;25.47;;;;;;;3.44;100.00;93931.16;5094186;28;20202;-76
2021/04/02 04:41:18;;;;;;;96.33;28.17;;;;;;;3.75;100.00;93937.59;5094084;28;20209;-78
2021/04/02 04:43:45;;;;;;;90.47;26.70;;;;;;;3.73;100.00;93934.34;5094065;28;20232;-79
2021/04/02 04:46:11;;;;;;;76.03;24.20;;;;;;;3.49;100.00;93935.88;5093869;28;20207;-78
2021/04/02 04:48:37;;;;;;;78.30;26.10;;;;;;;3.58;100.00;93931.53;5093763;28;20722;-78
2021/04/02 04:51:05;;;;;;;77.00;26.17;;;;;;;3.33;100.00;93926.25;5094011;28;20194;-79
2021/04/02 04:53:36;;;;;;;85.90;27.93;;;;;;;3.57;100.00;93927.38;5093040;28;20289;-77
2021/04/02 04:56:05;;;;;;;77.33;27.03;;;;;;;3.52;100.00;93927.81;5093758;28;20230;-79
2021/04/02 04:58:34;;;;;;;95.93;30.30;;;;;;;3.61;100.00;93926.06;5093730;28;20227;-79
2021/04/02 05:01:04;;;;;;;81.03;27.00;;;;;;;3.44;100.00;93940.69;5093536;28;20207;-78
2021/04/02 05:03:32;;;;;;;99.03;30.53;;;;;;;3.43;100.00;93950.19;5093554;28;20198;-77
2021/04/02 05:06:00;;;;;;;93.17;28.20;;;;;;;3.41;100.00;93940.97;5093684;28;20198;-79
2021/04/02 05:08:29;;;;;;;78.90;25.77;;;;;;;3.14;100.00;93938.38;5093627;28;20201;-79
2021/04/02 05:10:57;;;;;;;73.83;25.50;;;;;;;3.11;100.00;93937.88;5093608;28;20205;-77
2021/04/02 05:13:24;;;;;;;93.07;28.00;;;;;;;3.18;100.00;93930.34;5093341;28;20202;-79
2021/04/02 05:15:54;;;;;;;102.47;29.80;;;;;;;3.20;100.00;93941.31;5093191;28;20247;-78
2021/04/02 05:18:20;;;;;;;94.70;29.67;;;;;;;3.15;100.00;93942.59;5093517;28;20205;-80
2021/04/02 05:20:47;;;;;;;116.43;32.03;;;;;;;3.30;100.00;93944.63;5093364;28;20209;-79
2021/04/02 05:23:16;;;;;;;99.47;30.67;;;;;;;3.34;100.00;93948.50;5093367;28;20210;-78
2021/04/02 05:25:43;;;;;;;160.88;47.38;;;;;;;3.43;100.00;93942.44;5091944;28;20850;-79
2021/04/02 05:28:09;;;;;;;113.03;34.47;;;;;;;3.46;100.00;93943.91;5093171;28;20205;-80
2021/04/02 05:30:36;;;;;;;121.07;33.83;;;;;;;3.76;100.00;93939.22;5093334;28;20561;-79
2021/04/02 05:33:04;;;;;;;94.63;29.00;;;;;;;3.62;100.00;93941.41;5092953;28;20228;-78
2021/04/02 05:35:30;;;;;;;103.00;28.47;;;;;;;3.56;100.00;93947.19;5093079;28;20229;-78
2021/04/02 05:37:56;;;;;;;111.13;34.60;;;;;;;3.74;100.00;93946.31;5092972;28;20194;-78
2021/04/02 05:40:22;;;;;;;100.37;30.77;;;;;;;3.75;100.00;93937.59;5093009;28;20209;-79
2021/04/02 05:42:54;;;;;;;95.67;27.87;;;;;;;3.70;100.00;93935.50;5093228;28;20209;-78
2021/04/02 05:45:21;;;;;;;119.93;32.97;;;;;;;3.88;100.00;93933.63;5093219;28;20255;-78
2021/04/02 05:47:50;;;;;;;104.07;31.50;;;;;;;3.93;100.00;93940.91;5092546;28;20213;-79
2021/04/02 05:50:19;;;;;;;90.80;28.33;;;;;;;3.86;100.00;93932.97;5092862;28;20219;-78
2021/04/02 05:52:49;;;;;;;97.40;29.40;;;;;;;3.88;100.00;93932.81;5092914;28;20202;-77
2021/04/02 05:55:16;;;;;;;95.97;29.03;;;;;;;3.98;100.00;93936.09;5092425;28;20247;-79
2021/04/02 05:57:44;;;;;;;112.30;32.57;;;;;;;4.19;100.00;93940.03;5093037;28;20205;-77
2021/04/02 06:00:13;;;;;;;94.73;30.67;;;;;;;4.24;100.00;93943.75;5092867;28;20198;-78
2021/04/02 06:02:40;;;;;;;101.23;30.63;;;;;;;4.27;100.00;93945.22;5092880;28;20198;-77
2021/04/02 06:05:08;;;;;;;108.00;33.97;;;;;;;4.40;100.00;93953.31;5093987;28;20202;-77
2021/04/02 06:07:37;;;;;;;114.87;32.97;;;;;;;4.54;100.00;93936.38;5096871;28;20198;-78
2021/04/02 06:10:04;;;;;;;112.90;31.63;;;;;;;4.67;100.00;93941.09;5096878;28;20194;-77
2021/04/02 06:12:33;;;;;;;109.40;32.20;;;;;;;4.92;100.00;93949.66;5097003;28;20259;-78
2021/04/02 06:14:59;;;;;;;99.40;32.73;;;;;;;5.04;100.00;93944.97;5096616;28;20234;-78
2021/04/02 06:17:25;;;;;;;96.97;31.50;;;;;;;5.22;100.00;93949.97;5096744;28;20202;-77
2021/04/02 06:20:04;;;;;;;97.00;30.30;;;;;;;5.28;100.00;93940.75;5096799;28;20206;-77
2021/04/02 06:22:30;;;;;;;93.37;30.37;;;;;;;5.37;100.00;93944.94;5096887;28;20197;-77
2021/04/02 06:25:02;;;;;;;89.03;29.07;;;;;;;5.48;100.00;93944.63;5096571;28;20316;-77
2021/04/02 06:27:29;;;;;;;91.50;27.33;;;;;;;5.57;100.00;93941.03;5096761;28;20198;-76
2021/04/02 06:30:03;;;;;;;102.47;30.37;;;;;;;5.65;100.00;93944.59;5096518;28;20556;-77
2021/04/02 06:32:33;;;;;;;86.63;28.67;;;;;;;5.74;100.00;93941.81;5096273;28;20647;-77
2021/04/02 06:35:07;;;;;;;100.07;31.33;;;;;;;5.82;100.00;93940.16;5096256;28;20222;-78
2021/04/02 06:37:33;;;;;;;107.73;33.13;;;;;;;5.77;100.00;93937.25;5096378;28;20661;-76
2021/04/02 06:40:00;;;;;;;92.17;32.10;;;;;;;5.89;100.00;93944.47;5096326;28;20563;-77
2021/04/02 06:42:29;;;;;;;114.73;33.43;;;;;;;6.04;100.00;93942.03;5096397;28;20218;-77
2021/04/02 06:45:06;;;;;;;94.70;31.47;;;;;;;6.08;100.00;93942.53;5096092;28;20202;-77
2021/04/02 06:47:33;;;;;;;101.83;33.50;;;;;;;6.25;100.00;93948.44;5096447;28;20197;-77
2021/04/02 06:49:59;;;;;;;101.60;35.40;;;;;;;6.33;100.00;93937.19;5096046;28;20501;-76
2021/04/02 06:52:25;;;;;;;95.50;33.37;;;;;;;6.45;100.00;93935.84;5096214;28;20653;-78
2021/04/02 06:54:53;;;;;;;85.37;31.73;;;;;;;6.61;100.00;93933.16;5096075;28;20197;-77
2021/04/02 06:57:23;;;;;;;95.60;33.40;;;;;;;6.76;100.00;93940.19;5096027;28;20209;-77
2021/04/02 06:59:52;;;;;;;84.03;30.70;;;;;;;6.84;100.00;93938.38;5095765;28;20209;-77
2021/04/02 07:02:23;;;;;;;91.73;30.97;;;;;;;6.88;100.00;93945.78;5096059;28;20202;-78
2021/04/02 07:04:50;;;;;;;95.63;33.33;;;;;;;6.89;100.00;93937.03;5096006;28;20205;-77
2021/04/02 07:07:16;;;;;;;73.87;29.77;;;;;;;7.04;100.00;93938.69;5095924;28;20205;-76
2021/04/02 07:09:43;;;;;;;82.53;28.13;;;;;;;7.24;100.00;93938.19;5095822;28;20209;-77
2021/04/02 07:12:12;;;;;;;68.07;27.37;;;;;;;7.39;100.00;93936.44;5095798;28;20201;-77
2021/04/02 07:14:41;;;;;;;70.47;26.20;;;;;;;7.66;100.00;93936.84;5095629;28;20595;-78
2021/04/02 07:17:08;;;;;;;67.70;26.43;;;;;;;7.65;100.00;93929.22;5094782;28;20198;-77
2021/04/02 07:19:35;;;;;;;62.73;25.10;;;;;;;7.83;100.00;93936.63;5095542;28;20198;-79
2021/04/02 07:22:01;;;;;;;64.00;23.97;;;;;;;7.94;100.00;93933.59;5095558;28;20205;-78
2021/04/02 07:24:28;;;;;;;59.23;23.70;;;;;;;7.98;100.00;93924.47;5095559;28;20209;-79
2021/04/02 07:26:54;;;;;;;60.53;23.13;;;;;;;7.97;100.00;93922.84;5095687;28;20549;-77
2021/04/02 07:29:24;;;;;;;58.90;22.77;;;;;;;8.01;100.00;93923.28;5095422;28;20195;-78
2021/04/02 07:31:52;;;;;;;55.03;23.77;;;;;;;8.05;100.00;93922.75;5094770;28;20441;-80
2021/04/02 07:34:19;;;;;;;49.20;20.23;;;;;;;8.29;100.00;93921.66;5095417;28;20206;-78
2021/04/02 07:36:49;;;;;;;48.73;19.83;;;;;;;8.42;100.00;93926.16;5095259;28;20226;-76
2021/04/02 07:39:19;;;;;;;41.23;15.60;;;;;;;8.41;100.00;93927.19;5095183;28;20201;-76
2021/04/02 07:41:47;;;;;;;34.30;14.73;;;;;;;8.56;100.00;93929.78;5095433;28;20232;-77
2021/04/02 07:44:15;;;;;;;39.90;14.07;;;;;;;8.64;100.00;93921.03;5094995;28;20206;-78
2021/04/02 07:47:03;;;;;;;36.57;15.30;;;;;;;8.62;100.00;93928.22;5095173;28;20287;-76
2021/04/02 07:49:31;;;;;;;38.73;15.23;;;;;;;8.49;100.00;93927.09;5095074;28;20271;-77
2021/04/02 07:51:57;;;;;;;38.30;14.33;;;;;;;8.44;100.00;93926.84;5094480;28;20232;-77
2021/04/02 07:54:28;;;;;;;31.13;13.67;;;;;;;8.29;100.00;93936.44;5094971;28;20248;-78
2021/04/02 07:56:56;;;;;;;30.57;13.33;;;;;;;8.26;100.00;93937.63;5094989;28;20232;-77
2021/04/02 07:59:34;;;;;;;30.67;13.83;;;;;;;8.15;100.00;93932.88;5094935;28;20210;-77
2021/04/02 08:02:04;;;;;;;32.90;13.00;;;;;;;8.28;100.00;93937.44;5094776;28;20201;-76
2021/04/02 08:04:41;;;;;;;31.33;13.00;;;;;;;8.32;100.00;93930.88;5094557;28;20217;-77
2021/04/02 08:07:12;;;;;;;26.63;11.97;;;;;;;8.28;100.00;93929.63;5094689;28;20549;-76
2021/04/02 08:09:41;;;;;;;33.97;14.20;;;;;;;8.29;100.00;93931.22;5094063;28;20516;-78
2021/04/02 08:12:10;;;;;;;28.07;12.37;;;;;;;8.36;100.00;93934.72;5094510;28;20227;-80
2021/04/02 08:14:37;;;;;;;23.00;10.93;;;;;;;8.30;100.00;93931.03;5094444;28;20198;-78
2021/04/02 08:17:08;;;;;;;26.13;11.20;;;;;;;8.26;100.00;93936.78;5094344;28;20222;-79
2021/04/02 08:19:35;;;;;;;30.70;11.10;;;;;;;8.41;100.00;93929.78;5094531;28;20202;-78
2021/04/02 08:22:05;;;;;;;20.33;9.67;;;;;;;8.67;100.00;93925.88;5094371;28;20194;-77
2021/04/02 08:24:34;;;;;;;25.40;10.30;;;;;;;8.65;98.50;93930.47;5094364;28;20201;-78
2021/04/02 08:27:00;;;;;;;25.73;9.90;;;;;;;8.60;100.00;93935.41;5094298;28;20201;-76
2021/04/02 08:29:28;;;;;;;25.53;9.17;;;;;;;8.74;98.95;93931.13;5094273;28;20805;-77
2021/04/02 08:31:57;;;;;;;21.67;9.67;;;;;;;8.72;98.72;93930.53;5094025;28;20230;-76
2021/04/02 08:34:25;;;;;;;27.63;9.90;;;;;;;8.74;97.34;93946.75;5094254;28;20201;-76
2021/04/02 08:36:53;;;;;;;23.20;10.07;;;;;;;8.83;99.72;93948.25;5094068;28;20233;-76
2021/04/02 08:39:23;;;;;;;26.03;9.77;;;;;;;8.82;96.55;93939.63;5094000;28;20676;-78
2021/04/02 08:41:50;;;;;;;21.93;9.77;;;;;;;8.83;96.13;93943.84;5093777;28;20202;-77
2021/04/02 08:44:16;;;;;;;22.73;9.07;;;;;;;8.92;97.35;93939.31;5093985;28;20823;-77
2021/04/02 08:46:44;;;;;;;19.80;9.17;;;;;;;8.94;97.07;93942.53;5094055;28;20202;-77
2021/04/02 08:49:13;;;;;;;19.17;8.80;;;;;;;8.76;94.83;93947.38;5093911;28;20202;-77
2021/04/02 08:51:40;;;;;;;21.43;8.50;;;;;;;8.61;98.24;93945.66;5093886;28;20198;-77
2021/04/02 08:54:14;;;;;;;19.60;8.73;;;;;;;8.77;96.99;93935.97;5093675;28;20198;-78
2021/04/02 08:56:40;;;;;;;18.07;8.33;;;;;;;9.06;92.77;93935.88;5093819;28;20222;-77
2021/04/02 08:59:09;;;;;;;21.17;8.00;;;;;;;9.36;91.63;93937.50;5093905;28;20201;-77
2021/04/02 09:01:40;;;;;;;24.03;7.47;;;;;;;9.53;93.32;93938.84;5093608;28;20668;-76
2021/04/02 09:04:07;;;;;;;23.87;7.77;;;;;;;9.62;91.83;93934.28;5093741;28;20239;-76
2021/04/02 09:06:34;;;;;;;17.40;8.40;;;;;;;9.59;89.96;93938.09;5093502;28;20271;-78
2021/04/02 09:09:01;;;;;;;18.30;7.57;;;;;;;9.45;91.38;93934.56;5093442;28;20209;-78
2021/04/02 09:11:27;;;;;;;16.83;7.53;;;;;;;9.58;91.04;93931.25;5093607;28;20205;-78
2021/04/02 09:13:53;;;;;;;16.27;8.53;;;;;;;9.54;88.49;93937.03;5093377;28;20678;-77
2021/04/02 09:16:21;;;;;;;19.73;8.67;;;;;;;9.48;91.21;93932.59;5093429;28;20229;-77
2021/04/02 09:18:52;;;;;;;18.30;8.07;;;;;;;9.50;92.39;93928.78;5093247;28;20210;-77
2021/04/02 09:21:20;;;;;;;15.53;7.87;;;;;;;9.43;89.94;93923.53;5093279;28;20595;-76
2021/04/02 09:23:50;;;;;;;21.57;8.60;;;;;;;9.32;92.58;93924.03;5093251;28;20202;-76
2021/04/02 09:26:17;;;;;;;20.17;9.53;;;;;;;9.48;90.70;93922.97;5093386;28;20202;-78
2021/04/02 09:28:44;;;;;;;22.60;8.93;;;;;;;9.68;89.68;93915.28;5093177;28;20205;-78
2021/04/02 09:31:18;;;;;;;24.00;10.35;;;;;;;9.84;91.26;93915.97;5092418;28;20827;-79
2021/04/02 09:33:46;;;;;;;21.07;8.73;;;;;;;9.95;88.01;93915.44;5093164;28;20206;-76
2021/04/02 09:36:13;;;;;;;19.47;8.37;;;;;;;9.95;87.16;93911.00;5093216;28;20283;-77
2021/04/02 09:38:40;;;;;;;18.10;8.30;;;;;;;9.75;88.73;93913.50;5093006;28;20664;-77
2021/04/02 09:41:06;;;;;;;23.87;9.03;;;;;;;9.71;91.03;93920.13;5092604;28;20208;-77
2021/04/02 09:43:47;;;;;;;20.57;8.67;;;;;;;9.63;89.18;93913.22;5093030;28;20197;-77
2021/04/02 09:46:15;;;;;;;18.70;7.47;;;;;;;9.36;91.83;93911.44;5092980;28;20569;-76
2021/04/02 09:48:41;;;;;;;16.50;8.30;;;;;;;9.50;91.85;93912.34;5092960;28;20202;-77
2021/04/02 09:51:07;;;;;;;21.57;8.73;;;;;;;9.63;92.32;93913.22;5093118;28;20291;-77
2021/04/02 09:53:33;;;;;;;24.07;10.53;;;;;;;9.72;91.34;93913.09;5093054;28;20534;-77
2021/04/02 09:56:00;;;;;;;21.70;10.02;;;;;;;9.79;92.27;93909.53;5092134;28;20460;-77
2021/04/02 09:58:25;;;;;;;20.53;8.70;;;;;;;10.00;91.01;93919.06;5092984;28;20202;-76
2021/04/02 10:00:52;;;;;;;19.63;9.03;;;;;;;10.16;88.03;93914.53;5092877;28;20667;-78
2021/04/02 10:03:18;;;;;;;23.73;9.47;;;;;;;10.23;91.25;93917.97;5093066;28;20201;-75
2021/04/02 10:05:44;;;;;;;17.47;8.73;;;;;;;10.24;88.14;93911.75;5093012;28;20649;-77
2021/04/02 10:08:10;;;;;;;22.60;8.93;;;;;;;10.29;87.59;93914.59;5092873;28;20271;-78
2021/04/02 10:10:36;;;;;;;25.73;10.60;;;;;;;10.34;88.15;93909.63;5092801;28;20587;-76
2021/04/02 10:13:02;;;;;;;20.20;9.50;;;;;;;10.49;89.65;93916.47;5092800;28;20248;-76
2021/04/02 10:15:28;;;;;;;22.07;10.37;;;;;;;10.62;87.11;93910.50;5092572;28;20221;-76
2021/04/02 10:17:55;;;;;;;27.37;9.80;;;;;;;10.58;87.33;93910.09;5092779;28;20202;-77
2021/04/02 10:20:21;;;;;;;21.17;9.70;;;;;;;10.29;86.82;93911.16;5092898;28;20206;-77
2021/04/02 10:22:47;;;;;;;21.43;10.27;;;;;;;10.26;86.94;93912.34;5092772;28;20202;-77
2021/04/02 10:25:13;;;;;;;26.00;11.40;;;;;;;10.27;88.23;93906.13;5092823;28;20194;-78
2021/04/02 10:27:39;;;;;;;27.63;11.83;;;;;;;10.16;87.22;93907.50;5092692;28;20198;-76
2021/04/02 10:30:06;;;;;;;21.57;10.83;;;;;;;10.17;87.82;93909.13;5092382;28;20331;-77
2021/04/02 10:32:34;;;;;;;27.13;11.50;;;;;;;10.16;88.52;93906.69;5092479;28;20238;-76
2021/04/02 10:35:01;;;;;;;21.00;10.73;;;;;;;10.45;88.76;93915.25;5092404;28;20194;-76
2021/04/02 10:37:26;;;;;;;23.90;11.30;;;;;;;10.15;88.63;93905.88;5092527;28;20202;-78
2021/04/02 10:39:52;;;;;;;26.53;10.47;;;;;;;10.37;90.04;93911.00;5092623;28;20198;-78
2021/04/02 10:42:18;;;;;;;26.00;11.50;;;;;;;10.19;87.05;93911.50;5092602;28;20202;-76
2021/04/02 10:44:45;;;;;;;29.00;12.82;;;;;;;10.26;86.32;93911.53;5091407;28;20432;-77
2021/04/02 10:47:11;;;;;;;24.70;10.67;;;;;;;10.24;87.45;93919.59;5092563;28;20205;-76
2021/04/02 10:49:37;;;;;;;24.07;9.30;;;;;;;10.34;85.15;93914.84;5092544;28;20198;-77
2021/04/02 10:52:05;;;;;;;22.47;9.07;;;;;;;10.39;84.71;93918.66;5091698;28;20202;-77
2021/04/02 10:54:31;;;;;;;22.20;10.57;;;;;;;10.31;85.27;93912.56;5096266;28;20661;-77
2021/04/02 10:56:57;;;;;;;29.47;9.30;;;;;;;10.39;86.00;93921.25;5096083;28;20291;-77
2021/04/02 10:59:23;;;;;;;20.60;8.63;;;;;;;10.24;84.87;93926.59;5095939;28;20683;-77
2021/04/02 11:01:49;;;;;;;21.33;8.53;;;;;;;10.34;85.60;93922.66;5096115;28;20248;-77
2021/04/02 11:04:15;;;;;;;18.83;7.97;;;;;;;10.71;85.07;93924.97;5096028;28;20206;-77
2021/04/02 11:06:41;;;;;;;19.93;9.03;;;;;;;10.91;85.13;93922.41;5096024;28;20202;-77
2021/04/02 11:09:09;;;;;;;24.13;8.80;;;;;;;11.06;81.84;93919.63;5095876;28;20209;-76
2021/04/02 11:11:35;;;;;;;19.23;8.40;;;;;;;11.33;80.02;93911.78;5088305;28;20567;-79
2021/04/02 11:14:01;;;;;;;20.87;8.60;;;;;;;11.61;79.52;93911.56;5075264;28;20665;-77
2021/04/02 11:16:26;;;;;;;20.73;9.07;;;;;;;11.79;78.30;93913.53;5075401;28;20265;-77
2021/04/02 11:18:53;;;;;;;19.80;7.93;;;;;;;11.38;77.44;93915.41;5075164;28;20707;-78
2021/04/02 11:21:19;;;;;;;23.07;9.03;;;;;;;11.52;78.71;93910.94;5075260;28;20206;-76
2021/04/02 11:23:45;;;;;;;19.33;8.10;;;;;;;11.80;75.91;93913.31;5075282;28;20234;-78